sensor_id;sensor_type;location;lat;lon;timestamp;P1;durP1;ratioP1;P2;durP2;ratioP2
17091;SDS011;8661;45.700;4.880;2023-09-08T00:00:39;6.57;;;4.70;;
17091;SDS011;8661;45.700;4.880;2023-09-08T00:03:06;8.93;;;4.87;;
17091;SDS011;8661;45.700;4.880;2023-09-08T00:05:33;7.27;;;4.40;;
17091;SDS011;8661;45.700;4.880;2023-09-08T00:08:00;5.30;;;4.40;;
17091;SDS011;8661;45.700;4.880;2023-09-08T00:10:27;6.47;;;4.10;;
17091;SDS011;8661;45.700;4.880;2023-09-08T00:12:53;6.50;;;4.60;;
17091;SDS011;8661;45.700;4.880;2023-09-08T00:15:22;7.37;;;4.60;;
17091;SDS011;8661;45.700;4.880;2023-09-08T00:17:48;8.93;;;4.30;;
17091;SDS011;8661;45.700;4.880;2023-09-08T00:20:15;6.90;;;4.63;;
17091;SDS011;8661;45.700;4.880;2023-09-08T00:22:42;6.97;;;4.10;;
17091;SDS011;8661;45.700;4.880;2023-09-08T00:25:09;6.07;;;4.57;;
17091;SDS011;8661;45.700;4.880;2023-09-08T00:27:36;8.60;;;4.77;;
17091;SDS011;8661;45.700;4.880;2023-09-08T00:30:03;6.83;;;4.83;;
17091;SDS011;8661;45.700;4.880;2023-09-08T00:32:32;5.77;;;4.23;;
17091;SDS011;8661;45.700;4.880;2023-09-08T00:34:59;9.37;;;4.07;;
17091;SDS011;8661;45.700;4.880;2023-09-08T00:37:26;5.60;;;4.00;;
17091;SDS011;8661;45.700;4.880;2023-09-08T00:39:53;10.07;;;4.60;;
17091;SDS011;8661;45.700;4.880;2023-09-08T00:42:20;8.20;;;4.10;;
17091;SDS011;8661;45.700;4.880;2023-09-08T00:44:46;5.27;;;3.77;;
17091;SDS011;8661;45.700;4.880;2023-09-08T00:47:13;7.93;;;4.07;;
17091;SDS011;8661;45.700;4.880;2023-09-08T00:49:41;7.40;;;4.17;;
17091;SDS011;8661;45.700;4.880;2023-09-08T00:52:08;6.33;;;4.30;;
17091;SDS011;8661;45.700;4.880;2023-09-08T00:54:36;7.33;;;3.93;;
17091;SDS011;8661;45.700;4.880;2023-09-08T00:57:03;7.43;;;3.70;;
17091;SDS011;8661;45.700;4.880;2023-09-08T00:59:31;7.90;;;4.17;;
17091;SDS011;8661;45.700;4.880;2023-09-08T01:01:59;5.70;;;3.60;;
17091;SDS011;8661;45.700;4.880;2023-09-08T01:04:26;6.20;;;3.73;;
17091;SDS011;8661;45.700;4.880;2023-09-08T01:06:55;5.93;;;3.90;;
17091;SDS011;8661;45.700;4.880;2023-09-08T01:09:22;5.93;;;3.97;;
17091;SDS011;8661;45.700;4.880;2023-09-08T01:11:50;6.60;;;4.17;;
17091;SDS011;8661;45.700;4.880;2023-09-08T01:14:17;11.10;;;4.40;;
17091;SDS011;8661;45.700;4.880;2023-09-08T01:16:44;5.77;;;4.40;;
17091;SDS011;8661;45.700;4.880;2023-09-08T01:19:12;5.57;;;4.00;;
17091;SDS011;8661;45.700;4.880;2023-09-08T01:27:48;4.57;;;3.60;;
17091;SDS011;8661;45.700;4.880;2023-09-08T01:30:17;4.67;;;3.70;;
17091;SDS011;8661;45.700;4.880;2023-09-08T01:32:44;6.17;;;3.40;;
17091;SDS011;8661;45.700;4.880;2023-09-08T01:35:12;5.37;;;3.27;;
17091;SDS011;8661;45.700;4.880;2023-09-08T01:37:40;6.87;;;3.40;;
17091;SDS011;8661;45.700;4.880;2023-09-08T01:40:08;5.40;;;3.80;;
17091;SDS011;8661;45.700;4.880;2023-09-08T01:42:37;3.80;;;3.40;;
17091;SDS011;8661;45.700;4.880;2023-09-08T01:45:04;6.70;;;3.63;;
17091;SDS011;8661;45.700;4.880;2023-09-08T01:47:32;6.07;;;3.90;;
17091;SDS011;8661;45.700;4.880;2023-09-08T01:49:59;4.60;;;3.43;;
17091;SDS011;8661;45.700;4.880;2023-09-08T01:52:26;5.03;;;3.40;;
17091;SDS011;8661;45.700;4.880;2023-09-08T01:54:53;4.93;;;3.27;;
17091;SDS011;8661;45.700;4.880;2023-09-08T01:57:20;4.80;;;3.07;;
17091;SDS011;8661;45.700;4.880;2023-09-08T01:59:48;4.10;;;3.30;;
17091;SDS011;8661;45.700;4.880;2023-09-08T02:02:15;5.53;;;3.53;;
17091;SDS011;8661;45.700;4.880;2023-09-08T02:04:42;8.87;;;3.93;;
17091;SDS011;8661;45.700;4.880;2023-09-08T02:07:09;9.00;;;3.53;;
17091;SDS011;8661;45.700;4.880;2023-09-08T02:09:36;3.97;;;3.23;;
17091;SDS011;8661;45.700;4.880;2023-09-08T02:12:04;7.10;;;3.27;;
17091;SDS011;8661;45.700;4.880;2023-09-08T02:14:31;5.10;;;3.53;;
17091;SDS011;8661;45.700;4.880;2023-09-08T02:16:59;5.27;;;3.50;;
17091;SDS011;8661;45.700;4.880;2023-09-08T02:19:27;4.83;;;3.57;;
17091;SDS011;8661;45.700;4.880;2023-09-08T02:21:54;4.27;;;3.10;;
17091;SDS011;8661;45.700;4.880;2023-09-08T02:24:20;5.00;;;3.80;;
17091;SDS011;8661;45.700;4.880;2023-09-08T02:26:47;8.00;;;3.87;;
17091;SDS011;8661;45.700;4.880;2023-09-08T02:29:16;6.90;;;3.70;;
17091;SDS011;8661;45.700;4.880;2023-09-08T02:31:43;7.67;;;3.60;;
17091;SDS011;8661;45.700;4.880;2023-09-08T02:34:11;3.87;;;3.37;;
17091;SDS011;8661;45.700;4.880;2023-09-08T02:36:38;7.93;;;3.60;;
17091;SDS011;8661;45.700;4.880;2023-09-08T02:39:05;4.57;;;3.47;;
17091;SDS011;8661;45.700;4.880;2023-09-08T02:41:33;3.27;;;2.97;;
17091;SDS011;8661;45.700;4.880;2023-09-08T02:44:00;6.40;;;4.00;;
17091;SDS011;8661;45.700;4.880;2023-09-08T02:46:26;4.43;;;3.20;;
17091;SDS011;8661;45.700;4.880;2023-09-08T02:48:53;4.73;;;3.33;;
17091;SDS011;8661;45.700;4.880;2023-09-08T02:51:21;4.17;;;3.20;;
17091;SDS011;8661;45.700;4.880;2023-09-08T02:53:48;6.23;;;3.20;;
17091;SDS011;8661;45.700;4.880;2023-09-08T02:56:15;6.70;;;3.90;;
17091;SDS011;8661;45.700;4.880;2023-09-08T02:58:42;7.33;;;3.53;;
17091;SDS011;8661;45.700;4.880;2023-09-08T03:01:09;6.60;;;3.10;;
17091;SDS011;8661;45.700;4.880;2023-09-08T03:03:38;5.33;;;3.63;;
17091;SDS011;8661;45.700;4.880;2023-09-08T03:06:06;3.57;;;3.00;;
17091;SDS011;8661;45.700;4.880;2023-09-08T03:08:34;7.33;;;3.53;;
17091;SDS011;8661;45.700;4.880;2023-09-08T03:11:02;5.97;;;3.10;;
17091;SDS011;8661;45.700;4.880;2023-09-08T03:13:29;7.53;;;3.87;;
17091;SDS011;8661;45.700;4.880;2023-09-08T03:15:56;5.40;;;3.27;;
17091;SDS011;8661;45.700;4.880;2023-09-08T03:18:23;5.97;;;3.13;;
17091;SDS011;8661;45.700;4.880;2023-09-08T03:20:50;3.70;;;3.37;;
17091;SDS011;8661;45.700;4.880;2023-09-08T03:23:17;3.60;;;3.00;;
17091;SDS011;8661;45.700;4.880;2023-09-08T03:25:45;3.60;;;3.00;;
17091;SDS011;8661;45.700;4.880;2023-09-08T03:28:14;3.80;;;3.03;;
17091;SDS011;8661;45.700;4.880;2023-09-08T03:30:41;6.23;;;3.13;;
17091;SDS011;8661;45.700;4.880;2023-09-08T03:33:08;5.33;;;3.50;;
17091;SDS011;8661;45.700;4.880;2023-09-08T03:35:35;7.73;;;3.37;;
17091;SDS011;8661;45.700;4.880;2023-09-08T03:38:02;5.20;;;3.20;;
17091;SDS011;8661;45.700;4.880;2023-09-08T03:40:29;3.40;;;3.03;;
17091;SDS011;8661;45.700;4.880;2023-09-08T03:42:57;4.20;;;3.17;;
17091;SDS011;8661;45.700;4.880;2023-09-08T03:45:24;4.80;;;3.10;;
17091;SDS011;8661;45.700;4.880;2023-09-08T03:47:51;4.90;;;2.80;;
17091;SDS011;8661;45.700;4.880;2023-09-08T03:50:17;3.70;;;3.17;;
17091;SDS011;8661;45.700;4.880;2023-09-08T03:52:44;4.53;;;3.43;;
17091;SDS011;8661;45.700;4.880;2023-09-08T03:55:11;8.30;;;3.37;;
17091;SDS011;8661;45.700;4.880;2023-09-08T03:57:38;5.57;;;3.37;;
17091;SDS011;8661;45.700;4.880;2023-09-08T04:00:07;5.27;;;3.70;;
17091;SDS011;8661;45.700;4.880;2023-09-08T04:02:36;4.17;;;3.77;;
17091;SDS011;8661;45.700;4.880;2023-09-08T04:05:03;4.77;;;3.20;;
17091;SDS011;8661;45.700;4.880;2023-09-08T04:07:31;4.27;;;3.03;;
17091;SDS011;8661;45.700;4.880;2023-09-08T04:09:57;9.40;;;3.20;;
17091;SDS011;8661;45.700;4.880;2023-09-08T04:12:24;4.47;;;3.27;;
17091;SDS011;8661;45.700;4.880;2023-09-08T04:14:51;6.70;;;3.47;;
17091;SDS011;8661;45.700;4.880;2023-09-08T04:17:19;4.80;;;3.67;;
17091;SDS011;8661;45.700;4.880;2023-09-08T04:19:46;10.43;;;3.80;;
17091;SDS011;8661;45.700;4.880;2023-09-08T04:22:13;4.97;;;3.80;;
17091;SDS011;8661;45.700;4.880;2023-09-08T04:24:40;5.00;;;3.50;;
17091;SDS011;8661;45.700;4.880;2023-09-08T04:27:07;4.40;;;3.53;;
17091;SDS011;8661;45.700;4.880;2023-09-08T04:29:35;5.83;;;3.60;;
17091;SDS011;8661;45.700;4.880;2023-09-08T04:32:02;4.53;;;3.43;;
17091;SDS011;8661;45.700;4.880;2023-09-08T04:34:35;6.53;;;3.40;;
17091;SDS011;8661;45.700;4.880;2023-09-08T04:37:03;5.80;;;3.67;;
17091;SDS011;8661;45.700;4.880;2023-09-08T04:39:30;5.30;;;3.20;;
17091;SDS011;8661;45.700;4.880;2023-09-08T04:41:57;5.73;;;3.43;;
17091;SDS011;8661;45.700;4.880;2023-09-08T04:44:24;4.27;;;3.27;;
17091;SDS011;8661;45.700;4.880;2023-09-08T04:46:51;3.73;;;3.33;;
17091;SDS011;8661;45.700;4.880;2023-09-08T04:49:18;4.40;;;3.50;;
17091;SDS011;8661;45.700;4.880;2023-09-08T04:51:46;6.27;;;3.30;;
17091;SDS011;8661;45.700;4.880;2023-09-08T04:54:13;13.27;;;3.70;;
17091;SDS011;8661;45.700;4.880;2023-09-08T04:56:40;3.73;;;3.37;;
17091;SDS011;8661;45.700;4.880;2023-09-08T04:59:07;8.27;;;3.73;;
17091;SDS011;8661;45.700;4.880;2023-09-08T05:01:34;11.47;;;3.63;;
17091;SDS011;8661;45.700;4.880;2023-09-08T05:04:02;4.30;;;3.50;;
17091;SDS011;8661;45.700;4.880;2023-09-08T05:06:29;5.47;;;3.50;;
17091;SDS011;8661;45.700;4.880;2023-09-08T05:08:58;5.97;;;3.40;;
17091;SDS011;8661;45.700;4.880;2023-09-08T05:11:25;4.43;;;3.30;;
17091;SDS011;8661;45.700;4.880;2023-09-08T05:13:52;5.23;;;3.87;;
17091;SDS011;8661;45.700;4.880;2023-09-08T05:16:19;4.70;;;4.20;;
17091;SDS011;8661;45.700;4.880;2023-09-08T05:19:01;6.30;;;4.03;;
17091;SDS011;8661;45.700;4.880;2023-09-08T05:21:28;4.57;;;3.87;;
17091;SDS011;8661;45.700;4.880;2023-09-08T05:23:55;7.67;;;3.87;;
17091;SDS011;8661;45.700;4.880;2023-09-08T05:26:23;5.03;;;3.90;;
17091;SDS011;8661;45.700;4.880;2023-09-08T05:28:51;5.90;;;4.10;;
17091;SDS011;8661;45.700;4.880;2023-09-08T05:31:18;7.90;;;3.63;;
17091;SDS011;8661;45.700;4.880;2023-09-08T05:33:45;5.43;;;3.90;;
17091;SDS011;8661;45.700;4.880;2023-09-08T05:36:12;3.77;;;3.47;;
17091;SDS011;8661;45.700;4.880;2023-09-08T05:38:39;6.30;;;3.67;;
17091;SDS011;8661;45.700;4.880;2023-09-08T05:41:05;4.43;;;3.80;;
17091;SDS011;8661;45.700;4.880;2023-09-08T05:43:34;8.53;;;4.03;;
17091;SDS011;8661;45.700;4.880;2023-09-08T05:46:01;4.90;;;3.57;;
17091;SDS011;8661;45.700;4.880;2023-09-08T05:48:29;5.43;;;3.70;;
17091;SDS011;8661;45.700;4.880;2023-09-08T05:50:56;6.37;;;3.80;;
17091;SDS011;8661;45.700;4.880;2023-09-08T05:53:23;5.13;;;3.63;;
17091;SDS011;8661;45.700;4.880;2023-09-08T05:55:50;5.07;;;3.97;;
17091;SDS011;8661;45.700;4.880;2023-09-08T05:58:17;6.90;;;4.10;;
17091;SDS011;8661;45.700;4.880;2023-09-08T06:00:46;6.53;;;3.80;;
17091;SDS011;8661;45.700;4.880;2023-09-08T06:03:13;4.43;;;3.70;;
17091;SDS011;8661;45.700;4.880;2023-09-08T06:05:40;6.17;;;3.97;;
17091;SDS011;8661;45.700;4.880;2023-09-08T06:08:06;6.23;;;4.00;;
17091;SDS011;8661;45.700;4.880;2023-09-08T06:10:33;4.07;;;3.67;;
17091;SDS011;8661;45.700;4.880;2023-09-08T06:13:00;8.43;;;4.07;;
17091;SDS011;8661;45.700;4.880;2023-09-08T06:15:27;6.33;;;3.73;;
17091;SDS011;8661;45.700;4.880;2023-09-08T06:17:55;5.30;;;4.00;;
17091;SDS011;8661;45.700;4.880;2023-09-08T06:20:22;6.53;;;3.77;;
17091;SDS011;8661;45.700;4.880;2023-09-08T06:22:50;5.90;;;3.97;;
17091;SDS011;8661;45.700;4.880;2023-09-08T06:25:16;5.70;;;3.47;;
17091;SDS011;8661;45.700;4.880;2023-09-08T06:27:43;6.10;;;3.60;;
17091;SDS011;8661;45.700;4.880;2023-09-08T06:30:11;8.93;;;4.40;;
17091;SDS011;8661;45.700;4.880;2023-09-08T06:32:39;6.03;;;4.05;;
17091;SDS011;8661;45.700;4.880;2023-09-08T06:35:08;4.80;;;3.33;;
17091;SDS011;8661;45.700;4.880;2023-09-08T06:37:35;6.27;;;3.77;;
17091;SDS011;8661;45.700;4.880;2023-09-08T06:40:02;4.90;;;4.00;;
17091;SDS011;8661;45.700;4.880;2023-09-08T06:42:30;7.97;;;4.17;;
17091;SDS011;8661;45.700;4.880;2023-09-08T06:44:57;7.00;;;4.53;;
17091;SDS011;8661;45.700;4.880;2023-09-08T06:47:24;6.40;;;3.87;;
17091;SDS011;8661;45.700;4.880;2023-09-08T06:49:51;10.57;;;7.23;;
17091;SDS011;8661;45.700;4.880;2023-09-08T06:52:19;10.60;;;4.83;;
17091;SDS011;8661;45.700;4.880;2023-09-08T06:54:46;6.53;;;3.93;;
17091;SDS011;8661;45.700;4.880;2023-09-08T06:57:13;10.80;;;4.27;;
17091;SDS011;8661;45.700;4.880;2023-09-08T06:59:41;9.37;;;4.27;;
17091;SDS011;8661;45.700;4.880;2023-09-08T07:02:11;5.87;;;3.70;;
17091;SDS011;8661;45.700;4.880;2023-09-08T07:04:38;6.23;;;3.90;;
17091;SDS011;8661;45.700;4.880;2023-09-08T07:07:05;9.57;;;4.40;;
17091;SDS011;8661;45.700;4.880;2023-09-08T07:09:34;9.37;;;4.60;;
17091;SDS011;8661;45.700;4.880;2023-09-08T07:12:02;8.77;;;4.13;;
17091;SDS011;8661;45.700;4.880;2023-09-08T07:14:29;8.37;;;4.13;;
17091;SDS011;8661;45.700;4.880;2023-09-08T07:16:56;4.90;;;4.00;;
17091;SDS011;8661;45.700;4.880;2023-09-08T07:19:25;10.87;;;4.20;;
17091;SDS011;8661;45.700;4.880;2023-09-08T07:21:52;5.30;;;4.20;;
17091;SDS011;8661;45.700;4.880;2023-09-08T07:24:19;8.77;;;4.13;;
17091;SDS011;8661;45.700;4.880;2023-09-08T07:26:47;5.50;;;4.23;;
17091;SDS011;8661;45.700;4.880;2023-09-08T07:29:15;9.27;;;4.80;;
17091;SDS011;8661;45.700;4.880;2023-09-08T07:31:42;5.67;;;3.77;;
17091;SDS011;8661;45.700;4.880;2023-09-08T07:34:09;7.07;;;4.57;;
17091;SDS011;8661;45.700;4.880;2023-09-08T07:36:36;8.90;;;3.80;;
17091;SDS011;8661;45.700;4.880;2023-09-08T07:39:03;5.70;;;4.20;;
17091;SDS011;8661;45.700;4.880;2023-09-08T07:41:30;7.13;;;3.80;;
17091;SDS011;8661;45.700;4.880;2023-09-08T07:43:58;7.53;;;4.03;;
17091;SDS011;8661;45.700;4.880;2023-09-08T07:46:25;6.43;;;3.80;;
17091;SDS011;8661;45.700;4.880;2023-09-08T07:48:52;7.87;;;4.17;;
17091;SDS011;8661;45.700;4.880;2023-09-08T07:51:19;4.27;;;3.30;;
17091;SDS011;8661;45.700;4.880;2023-09-08T07:53:46;4.20;;;3.80;;
17091;SDS011;8661;45.700;4.880;2023-09-08T07:56:13;7.63;;;4.00;;
17091;SDS011;8661;45.700;4.880;2023-09-08T07:58:40;6.60;;;4.10;;
17091;SDS011;8661;45.700;4.880;2023-09-08T08:01:08;5.30;;;3.67;;
17091;SDS011;8661;45.700;4.880;2023-09-08T08:03:35;5.63;;;3.93;;
17091;SDS011;8661;45.700;4.880;2023-09-08T08:06:02;9.07;;;3.80;;
17091;SDS011;8661;45.700;4.880;2023-09-08T08:08:30;8.10;;;3.90;;
17091;SDS011;8661;45.700;4.880;2023-09-08T08:10:57;4.80;;;3.90;;
17091;SDS011;8661;45.700;4.880;2023-09-08T08:13:23;4.80;;;3.63;;
17091;SDS011;8661;45.700;4.880;2023-09-08T08:15:50;6.33;;;3.97;;
17091;SDS011;8661;45.700;4.880;2023-09-08T08:18:18;4.97;;;3.60;;
17091;SDS011;8661;45.700;4.880;2023-09-08T08:20:45;8.87;;;3.60;;
17091;SDS011;8661;45.700;4.880;2023-09-08T08:23:12;4.40;;;3.40;;
17091;SDS011;8661;45.700;4.880;2023-09-08T08:25:39;5.13;;;3.43;;
17091;SDS011;8661;45.700;4.880;2023-09-08T08:28:06;5.43;;;3.23;;
17091;SDS011;8661;45.700;4.880;2023-09-08T08:30:33;4.10;;;3.50;;
17091;SDS011;8661;45.700;4.880;2023-09-08T08:33:00;5.40;;;3.50;;
17091;SDS011;8661;45.700;4.880;2023-09-08T08:35:30;4.70;;;3.10;;
17091;SDS011;8661;45.700;4.880;2023-09-08T08:37:57;4.30;;;2.90;;
17091;SDS011;8661;45.700;4.880;2023-09-08T08:40:25;3.87;;;2.97;;
17091;SDS011;8661;45.700;4.880;2023-09-08T08:42:54;4.43;;;3.50;;
17091;SDS011;8661;45.700;4.880;2023-09-08T08:45:22;6.37;;;3.33;;
17091;SDS011;8661;45.700;4.880;2023-09-08T08:47:50;3.10;;;2.80;;
17091;SDS011;8661;45.700;4.880;2023-09-08T08:50:18;6.93;;;3.03;;
17091;SDS011;8661;45.700;4.880;2023-09-08T08:52:47;3.80;;;3.17;;
17091;SDS011;8661;45.700;4.880;2023-09-08T08:55:15;5.47;;;3.10;;
17091;SDS011;8661;45.700;4.880;2023-09-08T08:57:41;4.60;;;2.57;;
17091;SDS011;8661;45.700;4.880;2023-09-08T09:00:10;4.90;;;3.43;;
17091;SDS011;8661;45.700;4.880;2023-09-08T09:02:40;3.27;;;2.90;;
17091;SDS011;8661;45.700;4.880;2023-09-08T09:05:08;6.53;;;3.40;;
17091;SDS011;8661;45.700;4.880;2023-09-08T09:07:37;3.67;;;3.23;;
17091;SDS011;8661;45.700;4.880;2023-09-08T09:10:07;8.63;;;3.10;;
17091;SDS011;8661;45.700;4.880;2023-09-08T09:12:35;3.20;;;2.90;;
17091;SDS011;8661;45.700;4.880;2023-09-08T09:15:03;4.50;;;3.10;;
17091;SDS011;8661;45.700;4.880;2023-09-08T09:17:32;4.17;;;3.03;;
17091;SDS011;8661;45.700;4.880;2023-09-08T09:20:12;5.30;;;3.00;;
17091;SDS011;8661;45.700;4.880;2023-09-08T09:22:40;5.30;;;3.37;;
17091;SDS011;8661;45.700;4.880;2023-09-08T09:25:09;4.83;;;3.47;;
17091;SDS011;8661;45.700;4.880;2023-09-08T09:27:49;3.60;;;3.05;;
17091;SDS011;8661;45.700;4.880;2023-09-08T09:30:17;4.50;;;3.45;;
17091;SDS011;8661;45.700;4.880;2023-09-08T09:32:44;3.05;;;2.67;;
17091;SDS011;8661;45.700;4.880;2023-09-08T09:35:11;5.18;;;3.22;;
17091;SDS011;8661;45.700;4.880;2023-09-08T09:37:40;5.18;;;3.53;;
17091;SDS011;8661;45.700;4.880;2023-09-08T09:40:09;5.47;;;3.13;;
17091;SDS011;8661;45.700;4.880;2023-09-08T09:42:37;3.35;;;3.05;;
17091;SDS011;8661;45.700;4.880;2023-09-08T09:45:06;3.63;;;2.92;;
17091;SDS011;8661;45.700;4.880;2023-09-08T09:47:34;3.65;;;2.88;;
17091;SDS011;8661;45.700;4.880;2023-09-08T09:50:01;3.55;;;3.10;;
17091;SDS011;8661;45.700;4.880;2023-09-08T09:52:28;3.75;;;3.05;;
17091;SDS011;8661;45.700;4.880;2023-09-08T09:54:56;7.68;;;3.40;;
17091;SDS011;8661;45.700;4.880;2023-09-08T09:57:25;3.00;;;2.70;;
17091;SDS011;8661;45.700;4.880;2023-09-08T09:59:53;6.72;;;3.20;;
17091;SDS011;8661;45.700;4.880;2023-09-08T10:02:22;4.13;;;3.35;;
17091;SDS011;8661;45.700;4.880;2023-09-08T10:04:50;6.22;;;3.17;;
17091;SDS011;8661;45.700;4.880;2023-09-08T10:07:17;7.68;;;3.17;;
17091;SDS011;8661;45.700;4.880;2023-09-08T10:09:44;3.90;;;3.30;;
17091;SDS011;8661;45.700;4.880;2023-09-08T10:12:13;8.60;;;4.10;;
17091;SDS011;8661;45.700;4.880;2023-09-08T10:14:43;3.45;;;3.00;;
17091;SDS011;8661;45.700;4.880;2023-09-08T10:17:11;3.50;;;3.17;;
17091;SDS011;8661;45.700;4.880;2023-09-08T10:19:48;3.80;;;2.85;;
17091;SDS011;8661;45.700;4.880;2023-09-08T10:22:19;3.78;;;3.33;;
17091;SDS011;8661;45.700;4.880;2023-09-08T10:24:51;7.68;;;2.80;;
17091;SDS011;8661;45.700;4.880;2023-09-08T10:27:21;5.53;;;3.42;;
17091;SDS011;8661;45.700;4.880;2023-09-08T10:29:50;6.63;;;3.33;;
17091;SDS011;8661;45.700;4.880;2023-09-08T10:32:19;4.32;;;3.20;;
17091;SDS011;8661;45.700;4.880;2023-09-08T10:34:47;3.17;;;2.80;;
17091;SDS011;8661;45.700;4.880;2023-09-08T10:37:19;3.97;;;3.20;;
17091;SDS011;8661;45.700;4.880;2023-09-08T10:39:47;4.25;;;3.20;;
17091;SDS011;8661;45.700;4.880;2023-09-08T10:42:23;8.05;;;4.30;;
17091;SDS011;8661;45.700;4.880;2023-09-08T10:44:59;3.95;;;3.50;;
17091;SDS011;8661;45.700;4.880;2023-09-08T10:47:33;6.43;;;3.35;;
17091;SDS011;8661;45.700;4.880;2023-09-08T10:50:08;3.30;;;2.88;;
17091;SDS011;8661;45.700;4.880;2023-09-08T10:52:44;4.50;;;2.80;;
17091;SDS011;8661;45.700;4.880;2023-09-08T10:55:11;2.97;;;2.75;;
17091;SDS011;8661;45.700;4.880;2023-09-08T10:57:38;7.05;;;2.92;;
17091;SDS011;8661;45.700;4.880;2023-09-08T11:00:13;4.88;;;2.90;;
17091;SDS011;8661;45.700;4.880;2023-09-08T11:02:47;4.82;;;3.13;;
17091;SDS011;8661;45.700;4.880;2023-09-08T11:05:15;8.35;;;2.97;;
17091;SDS011;8661;45.700;4.880;2023-09-08T11:07:44;3.55;;;3.00;;
17091;SDS011;8661;45.700;4.880;2023-09-08T11:10:12;3.60;;;2.90;;
17091;SDS011;8661;45.700;4.880;2023-09-08T11:12:40;5.72;;;3.20;;
17091;SDS011;8661;45.700;4.880;2023-09-08T11:15:07;5.30;;;3.13;;
17091;SDS011;8661;45.700;4.880;2023-09-08T11:17:37;4.85;;;2.92;;
17091;SDS011;8661;45.700;4.880;2023-09-08T11:20:07;3.72;;;3.10;;
17091;SDS011;8661;45.700;4.880;2023-09-08T11:22:35;4.88;;;2.85;;
17091;SDS011;8661;45.700;4.880;2023-09-08T11:25:03;4.00;;;2.95;;
17091;SDS011;8661;45.700;4.880;2023-09-08T11:27:35;4.97;;;3.17;;
17091;SDS011;8661;45.700;4.880;2023-09-08T11:30:05;4.28;;;3.13;;
17091;SDS011;8661;45.700;4.880;2023-09-08T11:32:33;3.22;;;2.92;;
17091;SDS011;8661;45.700;4.880;2023-09-08T11:35:03;5.22;;;3.30;;
17091;SDS011;8661;45.700;4.880;2023-09-08T11:37:34;3.00;;;2.70;;
17091;SDS011;8661;45.700;4.880;2023-09-08T11:40:02;5.40;;;3.55;;
17091;SDS011;8661;45.700;4.880;2023-09-08T11:42:37;4.40;;;2.75;;
17091;SDS011;8661;45.700;4.880;2023-09-08T11:45:08;3.17;;;2.70;;
17091;SDS011;8661;45.700;4.880;2023-09-08T11:47:39;3.00;;;2.60;;
17091;SDS011;8661;45.700;4.880;2023-09-08T11:50:09;4.05;;;2.53;;
17091;SDS011;8661;45.700;4.880;2023-09-08T11:52:40;3.78;;;3.00;;
17091;SDS011;8661;45.700;4.880;2023-09-08T11:55:09;3.08;;;2.80;;
17091;SDS011;8661;45.700;4.880;2023-09-08T11:57:36;3.78;;;3.10;;
17091;SDS011;8661;45.700;4.880;2023-09-08T12:00:05;3.88;;;2.95;;
17091;SDS011;8661;45.700;4.880;2023-09-08T12:02:36;3.45;;;3.08;;
17091;SDS011;8661;45.700;4.880;2023-09-08T12:05:03;3.17;;;2.70;;
17091;SDS011;8661;45.700;4.880;2023-09-08T12:07:31;6.72;;;2.90;;
17091;SDS011;8661;45.700;4.880;2023-09-08T12:09:58;9.20;;;2.88;;
17091;SDS011;8661;45.700;4.880;2023-09-08T12:12:32;4.88;;;3.13;;
17091;SDS011;8661;45.700;4.880;2023-09-08T12:14:59;4.47;;;3.13;;
17091;SDS011;8661;45.700;4.880;2023-09-08T12:17:26;5.00;;;2.83;;
17091;SDS011;8661;45.700;4.880;2023-09-08T12:19:53;3.88;;;3.22;;
17091;SDS011;8661;45.700;4.880;2023-09-08T12:22:20;3.50;;;3.20;;
17091;SDS011;8661;45.700;4.880;2023-09-08T12:24:55;3.15;;;2.58;;
17091;SDS011;8661;45.700;4.880;2023-09-08T12:27:24;3.15;;;2.85;;
17091;SDS011;8661;45.700;4.880;2023-09-08T12:29:51;6.20;;;2.97;;
17091;SDS011;8661;45.700;4.880;2023-09-08T12:32:19;3.60;;;2.67;;
17091;SDS011;8661;45.700;4.880;2023-09-08T12:34:46;3.67;;;3.05;;
17091;SDS011;8661;45.700;4.880;2023-09-08T12:37:13;3.88;;;2.88;;
17091;SDS011;8661;45.700;4.880;2023-09-08T12:39:40;6.95;;;2.97;;
17091;SDS011;8661;45.700;4.880;2023-09-08T12:42:08;3.92;;;2.95;;
17091;SDS011;8661;45.700;4.880;2023-09-08T12:44:35;3.30;;;2.90;;
17091;SDS011;8661;45.700;4.880;2023-09-08T12:47:02;4.90;;;2.53;;
17091;SDS011;8661;45.700;4.880;2023-09-08T12:49:29;4.30;;;2.97;;
17091;SDS011;8661;45.700;4.880;2023-09-08T12:51:56;6.18;;;3.13;;
17091;SDS011;8661;45.700;4.880;2023-09-08T12:54:23;3.97;;;2.65;;
17091;SDS011;8661;45.700;4.880;2023-09-08T12:56:51;2.72;;;2.42;;
17091;SDS011;8661;45.700;4.880;2023-09-08T12:59:19;3.30;;;2.35;;
17091;SDS011;8661;45.700;4.880;2023-09-08T13:01:46;4.07;;;2.88;;
17091;SDS011;8661;45.700;4.880;2023-09-08T13:04:12;3.58;;;3.17;;
17091;SDS011;8661;45.700;4.880;2023-09-08T13:06:39;3.72;;;3.08;;
17091;SDS011;8661;45.700;4.880;2023-09-08T13:09:06;5.57;;;2.92;;
17091;SDS011;8661;45.700;4.880;2023-09-08T13:11:33;2.88;;;2.58;;
17091;SDS011;8661;45.700;4.880;2023-09-08T13:14:00;4.25;;;2.85;;
17091;SDS011;8661;45.700;4.880;2023-09-08T13:16:28;4.60;;;2.80;;
17091;SDS011;8661;45.700;4.880;2023-09-08T13:18:55;7.13;;;2.92;;
17091;SDS011;8661;45.700;4.880;2023-09-08T13:21:22;3.50;;;3.20;;
17091;SDS011;8661;45.700;4.880;2023-09-08T13:23:49;5.60;;;3.00;;
17091;SDS011;8661;45.700;4.880;2023-09-08T13:26:16;4.97;;;2.88;;
17091;SDS011;8661;45.700;4.880;2023-09-08T13:28:43;3.00;;;2.80;;
17091;SDS011;8661;45.700;4.880;2023-09-08T13:31:10;4.70;;;2.90;;
17091;SDS011;8661;45.700;4.880;2023-09-08T13:33:38;2.90;;;2.70;;
17091;SDS011;8661;45.700;4.880;2023-09-08T13:36:05;5.32;;;2.65;;
17091;SDS011;8661;45.700;4.880;2023-09-08T13:38:32;5.43;;;3.25;;
17091;SDS011;8661;45.700;4.880;2023-09-08T13:40:59;3.55;;;3.00;;
17091;SDS011;8661;45.700;4.880;2023-09-08T13:43:26;3.00;;;2.60;;
17091;SDS011;8661;45.700;4.880;2023-09-08T13:45:53;4.15;;;2.97;;
17091;SDS011;8661;45.700;4.880;2023-09-08T13:48:20;5.07;;;2.90;;
17091;SDS011;8661;45.700;4.880;2023-09-08T13:50:48;4.30;;;2.80;;
17091;SDS011;8661;45.700;4.880;2023-09-08T13:53:15;4.15;;;2.80;;
17091;SDS011;8661;45.700;4.880;2023-09-08T13:55:42;6.05;;;3.03;;
17091;SDS011;8661;45.700;4.880;2023-09-08T13:58:09;3.35;;;2.80;;
17091;SDS011;8661;45.700;4.880;2023-09-08T14:00:36;5.15;;;2.95;;
17091;SDS011;8661;45.700;4.880;2023-09-08T14:03:04;3.90;;;2.72;;
17091;SDS011;8661;45.700;4.880;2023-09-08T14:05:31;5.40;;;3.20;;
17091;SDS011;8661;45.700;4.880;2023-09-08T14:07:59;3.17;;;2.88;;
17091;SDS011;8661;45.700;4.880;2023-09-08T14:10:26;3.42;;;3.08;;
17091;SDS011;8661;45.700;4.880;2023-09-08T14:12:53;3.33;;;3.03;;
17091;SDS011;8661;45.700;4.880;2023-09-08T14:15:20;5.13;;;3.10;;
17091;SDS011;8661;45.700;4.880;2023-09-08T14:17:47;4.00;;;2.85;;
17091;SDS011;8661;45.700;4.880;2023-09-08T14:20:14;3.40;;;3.10;;
17091;SDS011;8661;45.700;4.880;2023-09-08T14:22:41;2.95;;;2.75;;
17091;SDS011;8661;45.700;4.880;2023-09-08T14:25:09;3.03;;;2.83;;
17091;SDS011;8661;45.700;4.880;2023-09-08T14:27:36;5.30;;;3.22;;
17091;SDS011;8661;45.700;4.880;2023-09-08T14:30:04;3.22;;;2.92;;
17091;SDS011;8661;45.700;4.880;2023-09-08T14:32:31;3.20;;;2.90;;
17091;SDS011;8661;45.700;4.880;2023-09-08T14:34:58;3.35;;;2.95;;
17091;SDS011;8661;45.700;4.880;2023-09-08T14:37:25;4.78;;;2.97;;
17091;SDS011;8661;45.700;4.880;2023-09-08T14:39:52;4.72;;;3.05;;
17091;SDS011;8661;45.700;4.880;2023-09-08T14:42:20;4.18;;;3.08;;
17091;SDS011;8661;45.700;4.880;2023-09-08T14:44:47;3.17;;;2.88;;
17091;SDS011;8661;45.700;4.880;2023-09-08T14:47:16;3.30;;;3.00;;
17091;SDS011;8661;45.700;4.880;2023-09-08T14:49:43;3.90;;;3.38;;
17091;SDS011;8661;45.700;4.880;2023-09-08T14:52:10;5.43;;;3.25;;
17091;SDS011;8661;45.700;4.880;2023-09-08T14:54:37;3.95;;;3.17;;
17091;SDS011;8661;45.700;4.880;2023-09-08T14:57:04;3.70;;;3.40;;
17091;SDS011;8661;45.700;4.880;2023-09-08T14:59:32;3.50;;;3.20;;
17091;SDS011;8661;45.700;4.880;2023-09-08T15:01:59;5.32;;;3.15;;
17091;SDS011;8661;45.700;4.880;2023-09-08T15:04:25;8.15;;;3.70;;
17091;SDS011;8661;45.700;4.880;2023-09-08T15:06:52;3.67;;;3.22;;
17091;SDS011;8661;45.700;4.880;2023-09-08T15:09:19;3.22;;;2.97;;